Time;durP1;ratioP1;P1;durP2;ratioP2;P2;SDS_P1;SDS_P2;PMS_P1;PMS_P2;Temp;Humidity;BMP_temperature;BMP_pressure;BME280_temperature;BME280_humidity;BME280_pressure;Samples;Min_cycle;Max_cycle;Signal;HPM_P1;HPM_P2
2023/08/08 00:00:39;;;;;;;6.35;2.50;;;15.00;96.90;;;;;;5015752;28;20120;-76
2023/08/08 00:03:05;;;;;;;5.28;2.53;;;15.00;97.00;;;;;;5033361;28;20032;-76
2023/08/08 00:05:30;;;;;;;5.25;2.22;;;15.00;97.10;;;;;;5033403;28;20112;-76
2023/08/08 00:07:56;;;;;;;7.43;2.38;;;15.00;97.20;;;;;;5033787;28;20033;-76
2023/08/08 00:10:22;;;;;;;6.13;2.25;;;14.90;97.20;;;;;;5033770;28;20064;-76
2023/08/08 00:12:47;;;;;;;5.47;2.38;;;14.90;97.40;;;;;;5033768;28;20033;-75
2023/08/08 00:15:13;;;;;;;8.70;2.33;;;14.90;97.60;;;;;;5033378;28;20116;-76
2023/08/08 00:17:38;;;;;;;5.70;2.53;;;14.90;97.70;;;;;;5033501;28;20212;-76
2023/08/08 00:20:05;;;;;;;9.45;3.53;;;14.90;97.70;;;;;;5033242;28;20037;-75
2023/08/08 00:22:30;;;;;;;8.38;2.45;;;14.90;98.00;;;;;;5033853;28;20025;-76
2023/08/08 00:24:56;;;;;;;8.30;3.30;;;15.00;98.00;;;;;;5033321;28;20584;-76
2023/08/08 00:27:22;;;;;;;7.15;3.42;;;15.00;98.20;;;;;;5033262;28;20025;-75
2023/08/08 00:29:48;;;;;;;7.35;3.30;;;15.00;98.30;;;;;;5033486;28;20032;-76
2023/08/08 00:32:13;;;;;;;6.57;3.30;;;15.00;98.50;;;;;;5033121;28;20087;-75
2023/08/08 00:34:39;;;;;;;10.07;2.92;;;14.90;98.40;;;;;;5033162;28;20037;-76
2023/08/08 00:37:05;;;;;;;7.13;3.10;;;15.00;98.50;;;;;;5015103;28;20034;-76
2023/08/08 00:39:30;;;;;;;9.00;3.05;;;14.90;98.60;;;;;;5033134;28;20035;-75
2023/08/08 00:41:56;;;;;;;8.38;3.63;;;15.00;98.70;;;;;;5015324;28;20065;-76
2023/08/08 00:44:21;;;;;;;8.07;3.22;;;15.00;99.00;;;;;;5015524;28;20037;-75
2023/08/08 00:46:47;;;;;;;11.38;4.28;;;15.00;99.00;;;;;;5015326;28;20062;-76
2023/08/08 00:49:13;;;;;;;8.65;3.45;;;15.00;99.10;;;;;;5033101;28;20462;-75
2023/08/08 00:51:39;;;;;;;6.18;2.67;;;14.90;99.20;;;;;;5033253;28;20438;-75
2023/08/08 00:54:05;;;;;;;6.47;3.05;;;15.00;99.20;;;;;;5015636;28;20041;-75
2023/08/08 00:56:31;;;;;;;6.90;3.13;;;15.00;99.40;;;;;;5032931;28;20097;-75
2023/08/08 00:58:57;;;;;;;7.05;2.60;;;15.10;99.40;;;;;;5015582;28;20087;-75
2023/08/08 01:01:23;;;;;;;7.90;3.08;;;15.00;99.40;;;;;;5015365;28;20453;-75
2023/08/08 01:03:49;;;;;;;10.77;3.72;;;15.00;99.50;;;;;;5015056;28;20075;-75
2023/08/08 01:06:34;;;;;;;12.05;3.83;;;15.00;99.70;;;;;;5032816;28;20029;-75
2023/08/08 01:09:15;;;;;;;7.65;2.72;;;15.10;99.80;;;;;;5032770;28;20474;-75
2023/08/08 01:11:42;;;;;;;9.18;3.38;;;15.10;99.80;;;;;;5033210;28;20025;-84
2023/08/08 01:14:08;;;;;;;6.95;2.50;;;15.10;99.90;;;;;;4999129;28;20179;-83
2023/08/08 01:16:34;;;;;;;5.13;2.40;;;15.10;99.90;;;;;;5015498;28;20029;-82
2023/08/08 01:19:01;;;;;;;7.30;2.63;;;15.10;99.90;;;;;;5015222;28;20030;-83
2023/08/08 01:21:30;;;;;;;6.72;2.75;;;15.10;99.90;;;;;;5015221;28;20103;-82
2023/08/08 01:24:13;;;;;;;8.23;2.75;;;15.10;99.90;;;;;;5033007;28;20025;-84
2023/08/08 01:26:41;;;;;;;7.75;2.92;;;15.10;99.90;;;;;;5015083;28;20033;-83
2023/08/08 01:29:06;;;;;;;8.43;2.22;;;15.10;99.90;;;;;;5015746;28;20028;-84
2023/08/08 01:31:32;;;;;;;6.25;2.38;;;15.10;99.90;;;;;;5032614;28;20034;-83
2023/08/08 01:33:57;;;;;;;5.60;2.08;;;15.10;99.90;;;;;;5011506;28;20049;-83
2023/08/08 01:36:30;;;;;;;10.60;2.28;;;15.10;99.90;;;;;;5011605;28;20084;-84
2023/08/08 01:39:04;;;;;;;7.07;2.55;;;15.10;99.90;;;;;;5011488;28;20051;-84
2023/08/08 01:41:32;;;;;;;6.07;2.15;;;15.10;99.90;;;;;;5011568;28;20113;-83
2023/08/08 01:43:58;;;;;;;7.80;2.88;;;15.10;99.90;;;;;;5011481;28;20032;-84
2023/08/08 01:46:25;;;;;;;9.30;2.58;;;15.10;99.90;;;;;;5011711;28;20479;-84
2023/08/08 01:48:51;;;;;;;8.23;2.40;;;15.10;99.90;;;;;;5013145;28;20022;-81
2023/08/08 01:51:16;;;;;;;7.28;2.10;;;15.10;99.90;;;;;;5015279;28;20041;-83
2023/08/08 01:53:42;;;;;;;7.93;2.55;;;15.00;99.90;;;;;;5015563;28;20030;-83
2023/08/08 01:56:08;;;;;;;9.90;2.50;;;15.10;99.90;;;;;;5015309;28;20034;-83
2023/08/08 01:58:33;;;;;;;7.53;2.60;;;15.10;99.90;;;;;;5015057;28;20370;-83
2023/08/08 02:00:59;;;;;;;8.98;2.85;;;15.10;99.90;;;;;;5015567;28;20061;-82
2023/08/08 02:03:25;;;;;;;6.47;2.53;;;15.10;99.90;;;;;;5015063;28;20058;-83
2023/08/08 02:05:50;;;;;;;4.95;1.75;;;15.10;99.90;;;;;;5016157;28;20029;-82
2023/08/08 02:08:16;;;;;;;10.52;2.63;;;15.10;99.90;;;;;;5016241;28;20030;-84
2023/08/08 02:10:42;;;;;;;6.88;2.45;;;15.10;99.90;;;;;;5016388;28;20033;-84
2023/08/08 02:13:07;;;;;;;8.25;2.30;;;15.10;99.90;;;;;;5014895;28;20501;-83
2023/08/08 02:15:33;;;;;;;13.48;2.63;;;15.10;99.90;;;;;;4998362;28;20025;-84
2023/08/08 02:18:00;;;;;;;9.13;2.65;;;15.10;99.90;;;;;;5014772;28;20030;-84
2023/08/08 02:20:26;;;;;;;7.88;2.97;;;15.10;99.90;;;;;;4998146;28;20429;-83
2023/08/08 02:22:51;;;;;;;7.05;2.00;;;15.10;99.90;;;;;;5014643;28;20034;-83
2023/08/08 02:25:17;;;;;;;6.45;2.30;;;15.10;99.90;;;;;;5014595;28;20486;-84
2023/08/08 02:27:43;;;;;;;9.23;2.13;;;15.10;99.90;;;;;;4997960;28;20025;-83
2023/08/08 02:30:09;;;;;;;8.65;2.70;;;15.10;99.90;;;;;;4998126;28;20117;-83
2023/08/08 02:32:35;;;;;;;7.05;2.15;;;15.10;99.90;;;;;;4999617;28;20053;-83
2023/08/08 02:35:00;;;;;;;6.88;2.17;;;15.00;99.90;;;;;;5017604;28;20120;-83
2023/08/08 02:37:26;;;;;;;10.15;2.25;;;15.00;99.90;;;;;;5001054;28;20116;-83
2023/08/08 02:39:51;;;;;;;10.55;3.13;;;15.00;99.90;;;;;;5035108;28;20021;-84
2023/08/08 02:42:17;;;;;;;7.43;1.92;;;14.90;99.90;;;;;;5035003;28;20262;-83
2023/08/08 02:44:43;;;;;;;6.88;2.13;;;14.90;99.90;;;;;;5000969;28;20022;-84
2023/08/08 02:47:08;;;;;;;8.95;2.35;;;14.90;99.90;;;;;;5017423;28;20026;-83
2023/08/08 02:49:34;;;;;;;5.97;2.42;;;14.80;99.90;;;;;;5017343;28;20105;-82
2023/08/08 02:52:00;;;;;;;7.38;2.17;;;14.80;99.90;;;;;;5000877;28;20048;-83
2023/08/08 02:54:26;;;;;;;6.20;2.15;;;14.80;99.90;;;;;;5017274;28;20108;-83
2023/08/08 02:56:52;;;;;;;6.97;2.38;;;14.80;99.90;;;;;;5001233;28;20061;-84
2023/08/08 02:59:17;;;;;;;8.43;1.92;;;14.70;99.90;;;;;;5017409;28;20039;-83
2023/08/08 03:01:43;;;;;;;7.15;2.13;;;14.70;99.90;;;;;;5016442;28;20033;-83
2023/08/08 03:04:09;;;;;;;8.60;2.60;;;14.70;99.90;;;;;;5017038;28;20092;-75
2023/08/08 03:06:34;;;;;;;8.05;2.65;;;14.70;99.90;;;;;;5016921;28;20120;-75
2023/08/08 03:09:00;;;;;;;9.55;2.78;;;14.70;99.90;;;;;;5016871;28;20462;-76
2023/08/08 03:11:25;;;;;;;6.63;3.22;;;14.60;99.90;;;;;;5034738;28;20033;-75
2023/08/08 03:13:51;;;;;;;6.05;2.90;;;14.60;99.90;;;;;;5016800;28;20063;-76
2023/08/08 03:16:17;;;;;;;13.63;3.08;;;14.60;99.90;;;;;;5034383;28;20044;-75
2023/08/08 03:18:42;;;;;;;12.48;4.65;;;14.60;99.90;;;;;;5034489;28;20034;-75
2023/08/08 03:21:08;;;;;;;11.80;4.05;;;14.60;99.90;;;;;;5034424;28;20068;-75
2023/08/08 03:23:33;;;;;;;10.27;4.00;;;14.50;99.90;;;;;;5016629;28;20053;-75
2023/08/08 03:25:59;;;;;;;10.40;3.17;;;14.50;99.90;;;;;;5016763;28;20039;-75
2023/08/08 03:28:25;;;;;;;12.05;3.88;;;14.50;99.90;;;;;;5034254;28;20068;-75
2023/08/08 03:30:50;;;;;;;8.05;3.50;;;14.50;99.90;;;;;;5016546;28;20466;-75
2023/08/08 03:33:16;;;;;;;10.88;4.35;;;14.50;99.90;;;;;;5034028;28;20510;-76
2023/08/08 03:35:43;;;;;;;10.32;3.83;;;14.50;99.90;;;;;;5034022;28;20030;-76
2023/08/08 03:38:09;;;;;;;7.80;3.58;;;14.50;99.90;;;;;;5033967;28;20057;-75
2023/08/08 03:40:34;;;;;;;12.45;3.70;;;14.40;99.90;;;;;;5033740;28;20502;-76
2023/08/08 03:43:00;;;;;;;11.50;4.47;;;14.40;99.90;;;;;;5033899;28;20025;-76
2023/08/08 03:45:25;;;;;;;10.05;4.10;;;14.40;99.90;;;;;;5016131;28;20060;-76
2023/08/08 03:47:51;;;;;;;6.95;3.08;;;14.40;99.90;;;;;;5033940;28;20033;-76
2023/08/08 03:50:17;;;;;;;9.32;3.88;;;14.40;99.90;;;;;;5016031;28;20059;-76
2023/08/08 03:52:42;;;;;;;9.48;3.92;;;14.40;99.90;;;;;;5033786;28;20041;-76
2023/08/08 03:55:08;;;;;;;8.20;3.30;;;14.40;99.90;;;;;;5033596;28;20033;-76
2023/08/08 03:57:34;;;;;;;10.20;3.70;;;14.40;99.90;;;;;;5033451;28;20040;-76
2023/08/08 03:59:59;;;;;;;7.43;3.38;;;14.30;99.90;;;;;;5033511;28;20112;-75
2023/08/08 04:02:25;;;;;;;7.57;3.65;;;14.30;99.90;;;;;;5015775;28;20040;-76
2023/08/08 04:04:51;;;;;;;14.73;4.28;;;14.30;99.90;;;;;;5015906;28;20495;-75
2023/08/08 04:07:17;;;;;;;11.25;3.35;;;14.30;99.90;;;;;;5033624;28;20512;-76
2023/08/08 04:09:42;;;;;;;10.15;3.72;;;14.30;99.90;;;;;;5016057;28;20065;-76
2023/08/08 04:12:08;;;;;;;9.93;3.50;;;14.30;99.90;;;;;;5033317;28;20036;-75
2023/08/08 04:14:34;;;;;;;10.73;4.72;;;14.30;99.90;;;;;;4999091;28;20033;-75
2023/08/08 04:17:00;;;;;;;13.52;3.80;;;14.40;99.90;;;;;;5033232;28;20083;-76
2023/08/08 04:19:25;;;;;;;14.95;4.32;;;14.40;99.90;;;;;;5033076;28;20025;-84
2023/08/08 04:21:51;;;;;;;7.95;3.85;;;14.40;99.90;;;;;;5015429;28;20116;-83
2023/08/08 04:24:17;;;;;;;11.80;3.90;;;14.40;99.90;;;;;;5015740;28;20030;-83
2023/08/08 04:26:43;;;;;;;12.55;3.65;;;14.40;99.90;;;;;;4999359;28;20036;-84
2023/08/08 04:29:08;;;;;;;13.63;3.90;;;14.40;99.90;;;;;;5016257;28;20485;-83
2023/08/08 04:31:34;;;;;;;10.75;3.25;;;14.40;99.90;;;;;;5033234;28;20072;-83
2023/08/08 04:34:00;;;;;;;12.15;3.85;;;14.50;99.90;;;;;;5015384;28;20139;-84
2023/08/08 04:36:27;;;;;;;9.60;3.60;;;14.50;99.90;;;;;;4999176;28;20036;-83
2023/08/08 04:38:53;;;;;;;11.40;3.63;;;14.50;99.90;;;;;;5015656;28;20067;-84
2023/08/08 04:41:18;;;;;;;9.13;3.70;;;14.50;99.90;;;;;;5014564;28;20493;-84
2023/08/08 04:43:44;;;;;;;11.55;4.53;;;14.50;99.90;;;;;;4998726;28;20488;-83
2023/08/08 04:46:09;;;;;;;12.82;4.80;;;14.50;99.90;;;;;;5031980;28;20076;-83
2023/08/08 04:48:37;;;;;;;10.38;4.25;;;14.50;99.90;;;;;;5030405;28;20033;-82
2023/08/08 04:51:06;;;;;;;11.32;4.22;;;14.40;99.90;;;;;;5031198;28;20087;-84
2023/08/08 04:53:32;;;;;;;13.90;4.68;;;14.50;99.90;;;;;;5031351;28;20044;-84
2023/08/08 04:55:57;;;;;;;8.27;4.35;;;14.50;99.90;;;;;;5032339;28;20029;-83
2023/08/08 04:58:23;;;;;;;9.38;3.97;;;14.50;99.90;;;;;;5015510;28;20063;-82
2023/08/08 05:00:50;;;;;;;12.85;4.07;;;14.50;99.90;;;;;;5033097;28;20045;-84
2023/08/08 05:03:16;;;;;;;9.05;4.40;;;14.50;99.90;;;;;;5015303;28;20500;-84
2023/08/08 05:05:44;;;;;;;13.07;5.15;;;14.50;99.90;;;;;;4999128;28;20034;-83
2023/08/08 05:08:13;;;;;;;13.52;5.28;;;14.50;99.90;;;;;;5032792;28;20030;-83
2023/08/08 05:10:39;;;;;;;12.63;4.57;;;14.40;99.90;;;;;;5033145;28;20041;-84
2023/08/08 05:13:05;;;;;;;13.18;5.15;;;14.50;99.90;;;;;;5033581;28;20038;-83
2023/08/08 05:15:30;;;;;;;12.40;5.38;;;14.40;99.90;;;;;;5015923;28;20037;-83
2023/08/08 05:17:57;;;;;;;12.40;5.18;;;14.50;99.90;;;;;;5032975;28;20120;-83
2023/08/08 05:20:23;;;;;;;14.55;5.50;;;14.40;99.90;;;;;;5032585;28;20029;-84
2023/08/08 05:22:48;;;;;;;10.13;4.72;;;14.50;99.90;;;;;;5031741;28;20041;-83
2023/08/08 05:25:14;;;;;;;12.18;5.45;;;14.40;99.90;;;;;;5019314;28;20057;-84
2023/08/08 05:27:40;;;;;;;16.10;5.60;;;14.50;99.90;;;;;;5037032;28;20068;-84
2023/08/08 05:30:06;;;;;;;11.70;5.43;;;14.50;99.90;;;;;;5035922;28;20034;-85
2023/08/08 05:32:32;;;;;;;10.60;5.10;;;14.60;99.90;;;;;;5036027;28;20025;-85
2023/08/08 05:34:58;;;;;;;12.75;5.32;;;14.60;99.90;;;;;;5019275;28;20053;-84
2023/08/08 05:37:24;;;;;;;13.75;5.35;;;14.60;99.90;;;;;;5018596;28;20034;-85
2023/08/08 05:39:49;;;;;;;13.27;5.38;;;14.60;99.90;;;;;;5019377;28;20060;-84
2023/08/08 05:42:15;;;;;;;15.52;5.60;;;14.70;99.90;;;;;;5035300;28;20493;-84
2023/08/08 05:44:44;;;;;;;14.52;5.45;;;14.80;99.90;;;;;;5036750;28;20071;-84
2023/08/08 05:47:10;;;;;;;12.48;5.07;;;14.80;99.90;;;;;;5035321;28;20053;-84
2023/08/08 05:49:35;;;;;;;11.60;5.18;;;14.80;99.90;;;;;;5018921;28;20091;-84
2023/08/08 05:52:01;;;;;;;14.70;5.78;;;14.90;99.90;;;;;;5018722;28;20159;-84
2023/08/08 05:54:28;;;;;;;12.10;4.90;;;15.00;99.90;;;;;;5035059;28;20064;-84
2023/08/08 05:56:53;;;;;;;12.48;6.07;;;15.00;99.90;;;;;;5035341;28;20492;-85
2023/08/08 05:59:19;;;;;;;13.05;5.55;;;15.10;99.90;;;;;;5035111;28;20061;-85
2023/08/08 06:01:45;;;;;;;10.32;4.68;;;15.10;99.90;;;;;;5018364;28;20389;-85
2023/08/08 06:04:10;;;;;;;16.08;6.50;;;15.10;99.90;;;;;;5001910;28;20029;-84
2023/08/08 06:06:36;;;;;;;10.13;4.65;;;15.20;99.90;;;;;;5036048;28;20026;-85
2023/08/08 06:09:02;;;;;;;14.60;6.35;;;15.20;99.90;;;;;;5002572;28;20121;-85
2023/08/08 06:11:28;;;;;;;10.00;4.50;;;15.20;99.90;;;;;;5034680;28;20527;-84
2023/08/08 06:13:54;;;;;;;12.27;5.10;;;15.30;99.90;;;;;;5018375;28;20029;-82
2023/08/08 06:16:20;;;;;;;11.70;3.85;;;15.40;99.90;;;;;;5035941;28;20115;-85
2023/08/08 06:18:46;;;;;;;15.05;5.53;;;15.40;99.90;;;;;;5034518;28;20473;-85
2023/08/08 06:21:11;;;;;;;16.75;5.60;;;15.40;99.90;;;;;;5017914;28;20031;-84
2023/08/08 06:23:37;;;;;;;16.55;4.50;;;15.50;99.90;;;;;;5035717;28;20030;-85
2023/08/08 06:26:03;;;;;;;9.38;4.88;;;15.60;99.90;;;;;;5018180;28;20492;-85
2023/08/08 06:28:30;;;;;;;9.98;3.88;;;15.70;99.90;;;;;;5017853;28;20021;-75
2023/08/08 06:30:56;;;;;;;8.75;3.70;;;15.70;99.90;;;;;;5035465;28;20041;-76
2023/08/08 06:33:22;;;;;;;11.68;3.90;;;15.70;99.90;;;;;;5034047;28;20042;-85
2023/08/08 06:35:47;;;;;;;12.95;4.10;;;15.80;99.90;;;;;;5001799;28;20029;-84
2023/08/08 06:38:13;;;;;;;8.85;3.30;;;15.80;99.90;;;;;;5017788;28;20063;-85
2023/08/08 06:40:39;;;;;;;11.52;4.10;;;15.80;99.90;;;;;;5001544;28;20116;-84
2023/08/08 06:43:04;;;;;;;19.08;4.47;;;15.90;99.90;;;;;;5018064;28;20416;-81
2023/08/08 06:45:30;;;;;;;9.48;3.80;;;15.90;99.90;;;;;;5035722;28;20026;-83
2023/08/08 06:47:56;;;;;;;10.25;3.53;;;15.90;99.90;;;;;;5017748;28;20033;-85
2023/08/08 06:50:21;;;;;;;7.05;2.90;;;15.90;99.90;;;;;;5035202;28;20411;-75
2023/08/08 06:52:47;;;;;;;8.15;3.50;;;15.90;99.90;;;;;;5035097;28;20389;-76
2023/08/08 06:55:13;;;;;;;10.90;3.75;;;16.00;99.90;;;;;;5035157;28;20463;-75
2023/08/08 06:57:38;;;;;;;9.57;3.15;;;16.00;99.90;;;;;;5017233;28;20034;-75
2023/08/08 07:00:05;;;;;;;9.23;3.50;;;16.00;99.90;;;;;;5034778;28;20131;-76
2023/08/08 07:02:30;;;;;;;10.93;2.55;;;16.00;99.90;;;;;;5033501;28;20037;-75
2023/08/08 07:04:56;;;;;;;6.82;2.60;;;16.00;99.90;;;;;;5033917;28;20033;-76
2023/08/08 07:07:22;;;;;;;7.85;2.67;;;16.00;99.90;;;;;;5034944;28;20037;-83
2023/08/08 07:09:48;;;;;;;8.43;2.38;;;16.10;99.90;;;;;;5033836;28;20035;-83
2023/08/08 07:12:14;;;;;;;10.80;2.05;;;16.10;99.90;;;;;;5017435;28;20466;-83
2023/08/08 07:14:40;;;;;;;7.30;1.98;;;16.10;99.90;;;;;;5033378;28;20029;-83
2023/08/08 07:17:05;;;;;;;8.40;1.52;;;16.20;99.90;;;;;;5017588;28;20036;-83
2023/08/08 07:19:32;;;;;;;6.82;1.80;;;16.20;99.90;;;;;;5033995;28;20113;-75
2023/08/08 07:21:58;;;;;;;5.93;0.90;;;16.20;99.90;;;;;;5033135;28;20121;-76
2023/08/08 07:24:28;;;;;;;7.63;1.48;;;16.30;99.90;;;;;;5033356;28;20116;-81
2023/08/08 07:26:58;;;;;;;5.55;1.00;;;16.30;99.70;;;;;;5033462;28;20033;-85
2023/08/08 07:29:23;;;;;;;5.82;0.80;;;16.40;99.40;;;;;;5017909;28;20029;-83
2023/08/08 07:31:51;;;;;;;4.38;0.80;;;16.40;98.80;;;;;;5033470;28;20074;-83
2023/08/08 07:34:16;;;;;;;4.03;0.77;;;16.50;98.20;;;;;;5017225;28;20099;-85
2023/08/08 07:36:42;;;;;;;3.08;0.82;;;16.50;97.90;;;;;;5016663;28;20030;-83
2023/08/08 07:39:08;;;;;;;4.97;0.73;;;16.60;95.80;;;;;;5016693;28;20108;-82
2023/08/08 07:41:34;;;;;;;9.88;1.08;;;16.60;95.60;;;;;;5034333;28;20034;-83
2023/08/08 07:44:01;;;;;;;3.15;1.02;;;16.60;95.10;;;;;;5032892;28;20108;-75
2023/08/08 07:46:27;;;;;;;3.28;0.60;;;16.70;94.30;;;;;;5016187;28;20030;-77
2023/08/08 07:48:52;;;;;;;5.97;0.70;;;16.70;93.70;;;;;;5033764;28;20342;-75
2023/08/08 07:51:18;;;;;;;1.95;0.50;;;16.80;93.20;;;;;;5034063;28;20029;-76
2023/08/08 07:53:44;;;;;;;3.72;0.60;;;16.90;93.50;;;;;;5032680;28;20029;-76
2023/08/08 07:56:09;;;;;;;2.72;0.68;;;16.90;93.20;;;;;;5033810;28;20124;-77
2023/08/08 07:58:35;;;;;;;1.55;0.50;;;17.00;92.10;;;;;;5016302;28;20385;-82
2023/08/08 08:01:00;;;;;;;3.20;0.52;;;17.10;91.80;;;;;;5033946;28;20116;-84
2023/08/08 08:03:27;;;;;;;3.53;0.50;;;17.10;90.90;;;;;;5032734;28;20466;-76
2023/08/08 08:05:53;;;;;;;4.82;0.50;;;17.10;90.70;;;;;;5032616;28;20033;-75
2023/08/08 08:08:19;;;;;;;2.03;0.50;;;17.20;90.50;;;;;;5033834;28;20024;-76
2023/08/08 08:10:45;;;;;;;3.50;0.70;;;17.30;90.70;;;;;;5033484;28;20383;-76
2023/08/08 08:13:11;;;;;;;1.58;0.40;;;17.30;88.30;;;;;;5033554;28;20029;-76
2023/08/08 08:15:38;;;;;;;2.47;0.50;;;17.30;89.30;;;;;;5015820;28;20045;-75
2023/08/08 08:18:04;;;;;;;4.15;0.40;;;17.40;89.00;;;;;;5033577;28;20017;-75
2023/08/08 08:20:29;;;;;;;2.20;0.57;;;17.50;87.80;;;;;;5033429;28;20527;-75
2023/08/08 08:22:55;;;;;;;2.00;0.35;;;17.50;86.90;;;;;;5033381;28;20033;-76
2023/08/08 08:25:21;;;;;;;4.72;0.50;;;17.50;86.90;;;;;;5033606;28;20034;-84
2023/08/08 08:27:46;;;;;;;1.90;0.40;;;17.50;85.80;;;;;;4999843;28;20080;-76
2023/08/08 08:30:12;;;;;;;1.88;0.50;;;17.50;85.90;;;;;;5033624;28;20039;-76
2023/08/08 08:32:40;;;;;;;5.03;0.40;;;17.60;84.80;;;;;;5033543;28;20029;-83
2023/08/08 08:35:07;;;;;;;2.20;0.40;;;17.60;84.80;;;;;;5033430;28;20486;-83
2023/08/08 08:37:33;;;;;;;4.07;0.40;;;17.70;84.60;;;;;;5015509;28;20018;-82
2023/08/08 08:39:59;;;;;;;2.25;0.32;;;17.70;83.70;;;;;;5015907;28;20087;-82
2023/08/08 08:42:27;;;;;;;2.63;0.40;;;17.70;81.90;;;;;;5015653;28;20029;-82
2023/08/08 08:44:57;;;;;;;1.80;0.40;;;17.70;81.80;;;;;;5032281;28;20079;-81
2023/08/08 08:47:25;;;;;;;1.85;0.38;;;17.80;82.70;;;;;;5032787;28;20041;-82
2023/08/08 08:49:52;;;;;;;3.08;0.40;;;17.80;82.90;;;;;;5033617;28;20064;-80
2023/08/08 08:52:18;;;;;;;2.40;0.30;;;17.90;82.80;;;;;;5033421;28;20027;-76
2023/08/08 08:54:45;;;;;;;4.38;0.60;;;17.90;82.90;;;;;;5033070;28;20068;-76
2023/08/08 08:57:11;;;;;;;1.23;0.30;;;18.00;83.60;;;;;;5033214;28;20104;-76
2023/08/08 08:59:37;;;;;;;1.38;0.43;;;18.10;83.40;;;;;;5035735;28;20025;-76
2023/08/08 09:02:03;;;;;;;4.00;0.35;;;18.20;83.00;;;;;;5037214;28;20036;-76
2023/08/08 09:04:30;;;;;;;2.40;0.40;;;18.20;79.10;;;;;;5035722;28;20077;-76
2023/08/08 09:06:56;;;;;;;1.83;0.30;;;18.20;78.00;;;;;;5037218;28;20025;-82
2023/08/08 09:09:22;;;;;;;3.47;0.57;;;18.20;77.30;;;;;;5037198;28;20025;-75
2023/08/08 09:11:50;;;;;;;1.00;0.32;;;18.20;77.10;;;;;;5036750;28;20400;-76
2023/08/08 09:14:20;;;;;;;2.08;0.20;;;18.30;77.60;;;;;;5035522;28;20052;-76
2023/08/08 09:16:47;;;;;;;2.92;0.40;;;18.30;77.00;;;;;;5036806;28;20079;-76
2023/08/08 09:19:14;;;;;;;1.33;0.28;;;18.40;76.30;;;;;;5018934;28;20053;-76
2023/08/08 09:21:40;;;;;;;1.65;0.30;;;18.50;74.90;;;;;;5036850;28;20493;-75
2023/08/08 09:24:06;;;;;;;2.10;0.32;;;18.50;74.20;;;;;;5036523;28;20083;-76
2023/08/08 09:26:34;;;;;;;1.73;0.50;;;18.50;73.00;;;;;;5036604;28;20017;-76
2023/08/08 09:29:00;;;;;;;1.02;0.20;;;18.50;72.80;;;;;;5036507;28;20408;-76
2023/08/08 09:31:25;;;;;;;2.10;0.30;;;18.60;71.20;;;;;;5036968;28;20450;-76
2023/08/08 09:33:53;;;;;;;1.33;0.28;;;18.60;70.50;;;;;;5035855;28;20076;-83
2023/08/08 09:36:22;;;;;;;1.48;0.30;;;18.70;70.60;;;;;;5035611;28;20053;-82
2023/08/08 09:38:48;;;;;;;2.03;0.38;;;18.80;71.50;;;;;;5034821;28;20094;-83
2023/08/08 09:41:14;;;;;;;1.50;0.30;;;18.90;71.30;;;;;;5018132;28;20563;-81
2023/08/08 09:43:39;;;;;;;1.23;0.28;;;18.90;71.20;;;;;;5034186;28;20030;-81
2023/08/08 09:46:05;;;;;;;2.15;0.43;;;19.00;72.00;;;;;;5034504;28;20022;-84
2023/08/08 09:48:32;;;;;;;1.65;0.40;;;19.00;71.90;;;;;;5033998;28;20026;-83
2023/08/08 09:51:02;;;;;;;1.42;0.30;;;19.00;71.20;;;;;;5017501;28;20025;-82
2023/08/08 09:53:29;;;;;;;1.58;0.30;;;19.00;71.40;;;;;;5035452;28;20381;-76
2023/08/08 09:55:56;;;;;;;4.60;0.50;;;19.00;72.00;;;;;;5017634;28;20496;-76
2023/08/08 09:58:22;;;;;;;2.88;0.32;;;19.10;72.50;;;;;;5017381;28;20393;-76
2023/08/08 10:00:51;;;;;;;1.10;0.30;;;19.20;71.80;;;;;;5033601;28;20057;-76
2023/08/08 10:03:18;;;;;;;0.88;0.32;;;19.20;70.70;;;;;;5034793;28;20021;-76
2023/08/08 10:05:45;;;;;;;1.38;0.38;;;19.20;69.50;;;;;;5034916;28;20053;-76
2023/08/08 10:08:11;;;;;;;2.90;0.38;;;19.30;70.20;;;;;;5034902;28;20056;-77
2023/08/08 10:10:38;;;;;;;2.63;0.30;;;19.40;70.40;;;;;;5034236;28;20030;-76
2023/08/08 10:13:05;;;;;;;2.63;0.30;;;19.50;70.00;;;;;;5016965;28;20025;-83
2023/08/08 10:15:31;;;;;;;1.05;0.20;;;19.50;69.70;;;;;;5034134;28;20079;-82
2023/08/08 10:17:57;;;;;;;3.35;0.40;;;19.50;70.00;;;;;;5017553;28;20497;-83
2023/08/08 10:20:26;;;;;;;2.92;0.40;;;19.50;69.70;;;;;;5000939;28;20107;-83
2023/08/08 10:22:54;;;;;;;0.80;0.30;;;19.50;69.00;;;;;;5017198;28;20367;-75
2023/08/08 10:25:26;;;;;;;1.48;0.30;;;19.60;68.90;;;;;;5033488;28;20045;-84
2023/08/08 10:28:07;;;;;;;1.80;0.30;;;19.80;67.70;;;;;;5017127;28;20029;-74
2023/08/08 10:30:43;;;;;;;1.15;0.40;;;19.80;67.80;;;;;;5033428;28;20424;-76
2023/08/08 10:33:19;;;;;;;1.70;0.30;;;19.80;68.10;;;;;;4995424;28;1116467;-76
2023/08/08 10:36:01;;;;;;;2.03;0.55;;;19.80;67.80;;;;;;5035577;28;20163;-76
2023/08/08 10:38:39;;;;;;;1.15;0.40;;;19.70;66.40;;;;;;5034010;28;20148;-76
2023/08/08 10:41:05;;;;;;;1.90;0.40;;;19.70;67.50;;;;;;5034105;28;20109;-81
2023/08/08 10:43:31;;;;;;;2.00;0.30;;;19.70;66.40;;;;;;5035538;28;20025;-82
2023/08/08 10:45:59;;;;;;;2.35;0.40;;;19.70;66.20;;;;;;5017632;28;20040;-76
2023/08/08 10:48:26;;;;;;;2.90;0.30;;;19.60;66.10;;;;;;5035157;28;20018;-76
2023/08/08 10:50:54;;;;;;;2.25;0.40;;;19.60;67.20;;;;;;5033855;28;20141;-77
2023/08/08 10:53:24;;;;;;;2.95;0.40;;;19.80;67.20;;;;;;5034960;28;20436;-76
2023/08/08 10:56:00;;;;;;;3.75;0.40;;;20.20;67.70;;;;;;5034960;28;20025;-80
2023/08/08 10:58:58;;;;;;;3.90;0.47;;;20.80;67.80;;;;;;5035039;28;20022;-77
2023/08/08 11:01:28;;;;;;;1.08;0.30;;;21.40;66.10;;;;;;5033053;28;20037;-77
2023/08/08 11:03:54;;;;;;;3.17;0.43;;;21.90;64.70;;;;;;5034871;28;20057;-76
2023/08/08 11:06:20;;;;;;;0.88;0.30;;;22.30;63.70;;;;;;5034846;28;20096;-85
2023/08/08 11:08:46;;;;;;;1.55;0.28;;;22.50;61.80;;;;;;5017363;28;20425;-77
2023/08/08 11:11:12;;;;;;;3.08;0.40;;;22.60;61.30;;;;;;5000636;28;20075;-77
2023/08/08 11:13:38;;;;;;;3.40;0.47;;;22.50;60.40;;;;;;5034974;28;20026;-86
2023/08/08 11:16:03;;;;;;;1.88;0.30;;;22.60;60.90;;;;;;5017249;28;20076;-85
2023/08/08 11:18:29;;;;;;;1.13;0.43;;;22.70;59.50;;;;;;5034769;28;20025;-82
2023/08/08 11:20:55;;;;;;;2.10;0.43;;;22.80;59.00;;;;;;5034899;28;20477;-75
2023/08/08 11:23:21;;;;;;;2.03;0.40;;;23.00;59.50;;;;;;5035138;28;20539;-83
2023/08/08 11:25:48;;;;;;;2.10;0.30;;;23.30;59.10;;;;;;5035144;28;20025;-76
2023/08/08 11:28:14;;;;;;;1.77;0.30;;;23.40;59.30;;;;;;5033110;28;20377;-77
2023/08/08 11:30:43;;;;;;;0.90;0.20;;;23.60;57.10;;;;;;5034320;28;20028;-76
2023/08/08 11:33:10;;;;;;;1.63;0.30;;;23.60;55.90;;;;;;5034136;28;20021;-76
2023/08/08 11:35:36;;;;;;;2.63;0.38;;;23.30;55.80;;;;;;5016397;28;20029;-77
2023/08/08 11:38:04;;;;;;;1.40;0.40;;;23.00;56.00;;;;;;5033982;28;20500;-76
2023/08/08 11:40:30;;;;;;;3.50;0.40;;;22.60;56.90;;;;;;5033811;28;20036;-76
2023/08/08 11:42:57;;;;;;;1.48;0.40;;;22.30;57.40;;;;;;5034125;28;20033;-76
2023/08/08 11:45:24;;;;;;;1.58;0.50;;;22.20;58.20;;;;;;5034077;28;20033;-76
2023/08/08 11:47:54;;;;;;;1.48;0.40;;;22.30;58.20;;;;;;5034076;28;20032;-76
2023/08/08 11:50:23;;;;;;;2.08;0.40;;;22.40;58.50;;;;;;5034030;28;20033;-84
2023/08/08 11:52:52;;;;;;;2.45;0.40;;;22.60;58.30;;;;;;5000523;28;20118;-83
2023/08/08 11:55:22;;;;;;;1.92;0.40;;;22.70;57.80;;;;;;5016626;28;20022;-86
2023/08/08 11:57:48;;;;;;;1.63;0.35;;;22.70;57.60;;;;;;5034027;28;20025;-82
2023/08/08 12:00:15;;;;;;;2.08;0.40;;;22.70;57.80;;;;;;5034122;28;20038;-82
2023/08/08 12:02:43;;;;;;;3.60;0.50;;;22.80;58.30;;;;;;5032696;28;20049;-84
2023/08/08 12:05:17;;;;;;;1.88;0.35;;;22.90;57.70;;;;;;5032765;28;20067;-81
2023/08/08 12:07:45;;;;;;;1.33;0.40;;;22.80;57.60;;;;;;5034028;28;20030;-84
2023/08/08 12:10:20;;;;;;;2.35;0.50;;;22.90;58.30;;;;;;5016470;28;20028;-82
2023/08/08 12:12:46;;;;;;;1.38;0.40;;;23.30;58.20;;;;;;5034122;28;20473;-81
2023/08/08 12:15:12;;;;;;;2.83;0.30;;;23.60;58.20;;;;;;5033578;28;20397;-76
2023/08/08 12:17:39;;;;;;;3.03;0.47;;;23.70;57.20;;;;;;5033552;28;20025;-83
2023/08/08 12:20:07;;;;;;;4.60;0.50;;;23.60;56.30;;;;;;5033561;28;20378;-82
2023/08/08 12:22:33;;;;;;;1.92;0.50;;;23.60;56.60;;;;;;5033992;28;20117;-83
2023/08/08 12:24:59;;;;;;;1.65;0.43;;;23.70;56.50;;;;;;5032959;28;20021;-82
2023/08/08 12:27:25;;;;;;;1.05;0.30;;;23.80;56.90;;;;;;5033780;28;20355;-82
2023/08/08 12:29:51;;;;;;;3.97;0.68;;;23.90;56.10;;;;;;5033399;28;20079;-85
2023/08/08 12:32:23;;;;;;;1.42;0.30;;;23.90;54.50;;;;;;5016114;28;20075;-82
2023/08/08 12:34:49;;;;;;;1.67;0.50;;;23.70;55.10;;;;;;5033410;28;20052;-83
2023/08/08 12:37:15;;;;;;;2.65;0.50;;;23.70;54.80;;;;;;5015680;28;20122;-83
2023/08/08 12:39:41;;;;;;;1.50;0.40;;;23.90;55.30;;;;;;4999415;28;20620;-75